• Join FlightAware (Why Join?)
  • Login
  • US Flag 
05:28AM EDT


 

Airport Tracker/Info


-or-


 

Live Flight TrackerFlight Track Log ✈ ASQ5428 ✈ 08-May-2013 ✈ KSHV - KMEM

Flight Track Log - Related Links

Times and Time Zones

All times are in EDT time to prevent confusion due to time zone crossing. See the ASQ5428 flight status page for this flight to view local times or setup timezone preferences in your user account.

Time Position Orientation Groundspeed Altitude Reporting Facility
EDT Latitude Longitude Course Direction KTS MPH feet Rate Location/Type
07:55AM 32.4314 -93.8175 106° East 171 197 1,100  Level Fort Worth Center
07:56AM 32.4169 -93.7564 106° East 224 258 4,100 2,580 Climbing Fort Worth Center
07:57AM 32.4692 -93.6831 50° Northeast 303 349 6,900 2,760 Climbing Fort Worth Center
07:58AM 32.5297 -93.6092 46° Northeast 291 335 10,000 2,400 Climbing Fort Worth Center
07:59AM 32.5919 -93.5350 45° Northeast 296 341 11,800 1,560 Climbing Fort Worth Center
08:00AM 32.6606 -93.4531 45° Northeast 328 377 13,200 1,380 Climbing Fort Worth Center
08:01AM 32.7308 -93.3683 45° Northeast 367 422 14,600 1,440 Climbing Fort Worth Center
08:02AM 32.8092 -93.2783 44° Northeast 381 438 16,100 1,440 Climbing Fort Worth Center
08:03AM 32.8875 -93.1833 46° Northeast 391 450 17,500 1,200 Climbing Fort Worth Center
08:04AM 32.9678 -93.0903 44° Northeast 396 456 18,600 1,140 Climbing Fort Worth Center
08:05AM 33.0478 -92.9922 46° Northeast 396 456 19,800 1,200 Climbing Fort Worth Center
08:06AM 33.1319 -92.8939 44° Northeast 401 461 21,000 1,080 Climbing Fort Worth Center
08:08AM 33.2739 -92.7128 47° Northeast 411 473 22,800 1,020 Climbing Memphis Center
08:09AM 33.3492 -92.5931 53° Northeast 428 493 23,800 900 Climbing Memphis Center
08:10AM 33.4181 -92.4728 56° Northeast 434 499 24,700 600 Climbing Memphis Center
08:11AM 33.4869 -92.3497 56° Northeast 440 506 25,000 120 Climbing Memphis Center
08:12AM 33.5619 -92.2244 54° Northeast 440 506 25,000  Level Memphis Center
08:13AM 33.6328 -92.0961 56° Northeast 450 518 25,000 -300 Level Memphis Center
08:14AM 33.7094 -91.9703 54° Northeast 458 527 24,500 -540 Descending Memphis Center
08:15AM 33.7736 -91.8517 57° Northeast 453 521 24,000 -300 Descending Memphis Center
08:16AM 33.8375 -91.7403 55° Northeast 430 495 24,000  Level Memphis Center
08:17AM 33.9014 -91.6236 57° Northeast 410 472 24,000  Level Memphis Center
08:18AM 33.9650 -91.5217 53° Northeast 410 472 24,000  Level Memphis Center
08:19AM 34.0411 -91.4150 49° Northeast 416 479 24,000  Level Memphis Center
08:20AM 34.1192 -91.3081 49° Northeast 423 487 24,000 -1,080 Level Memphis Center
08:21AM 34.2056 -91.1961 47° Northeast 440 506 21,900 -2,280 Descending Memphis Center
08:22AM 34.2833 -91.0811 51° Northeast 440 506 19,500 -2,280 Descending Memphis Center
08:23AM 34.3611 -90.9736 49° Northeast 435 501 17,400 -2,220 Descending Memphis Center
08:24AM 34.4367 -90.8683 49° Northeast 425 489 15,100 -2,280 Descending Memphis Center
08:25AM 34.5164 -90.7553 49° Northeast 413 475 12,900 -2,220 Descending Memphis Center
08:26AM 34.5878 -90.6547 49° Northeast 395 455 10,700 -1,500 Descending Memphis Center
08:27AM 34.6336 -90.5564 60° Northeast 368 423 9,900 -960 Descending Memphis Center
08:28AM 34.6589 -90.4733 70° East 289 333 8,800 -1,200 Descending Memphis Center
08:29AM 34.6714 -90.3875 80° East 259 298 7,600 -1,140 Descending Memphis Center
08:30AM 34.6819 -90.3067 81° East 244 281 6,600 -840 Descending Memphis Center
08:31AM 34.6944 -90.2308 79° East 238 274 6,000 -300 Descending Memphis Center
08:32AM 34.7047 -90.1550 81° East 233 268 6,000 -600 Level Memphis Center
08:33AM 34.7150 -90.0767 81° East 233 268 4,900 -960 Descending Memphis Center
08:34AM 34.7567 -90.0361 39° Northeast 206 237 4,100 -480 Descending Memphis Center
08:35AM 34.8108 -90.0006 28° Northeast 211 243 4,000 -300 Descending Memphis Center
08:36AM 34.8669 -89.9900 North 205 236 3,600 -840 Descending Memphis Center
08:37AM 34.9192 -89.9872 North 192 221 2,400 -1,080 Descending Memphis Center
08:38AM 34.9756 -89.9897 358° North 187 215 1,500 -900 Descending Memphis Center
08:39AM 35.0150 -89.9894 360° North 161 185 600 -900 Descending Memphis Center
08:41AM 35.0333 -89.9667 North  Level FlightAware Approximate
08:48AM 35.0424 -89.9767 North  Level Estimated
08:49AM 35.0424 -89.9767 North  Level Estimated
08:50AM 35.0424 -89.9767 North  Level Estimated
08:51AM 35.0424 -89.9767 North  Level Estimated
08:52AM 35.0424 -89.9767 North  Level Estimated
08:53AM 35.0424 -89.9767 North  Level Estimated
08:54AM 35.0424 -89.9767 North  Level Estimated
08:55AM 35.0424 -89.9767 North  Level Estimated
08:56AM 35.0424 -89.9767 North  Level Estimated